createdAt,value
2023-01-08T00:00:11.206Z,100137.63
2023-01-08T00:02:43.373Z,100147.31
2023-01-08T00:05:15.553Z,100133.19
2023-01-08T00:07:47.468Z,100122.53
2023-01-08T00:10:19.432Z,100152.50
2023-01-08T00:12:51.346Z,100153.41
2023-01-08T00:15:23.538Z,100153.41
2023-01-08T00:17:55.628Z,100142.78
2023-01-08T00:20:29.062Z,100141.06
2023-01-08T00:23:00.981Z,100151.75
2023-01-08T00:25:32.985Z,100152.63
2023-01-08T00:28:05.223Z,100151.72
2023-01-08T00:30:38.056Z,100150.00
2023-01-08T00:33:10.670Z,100133.38
2023-01-08T00:35:42.650Z,100119.22
2023-01-08T00:38:14.670Z,100125.56
2023-01-08T00:40:48.869Z,100110.50
2023-01-08T00:43:21.458Z,100122.00
2023-01-08T00:45:54.042Z,100111.47
2023-01-08T00:48:26.701Z,100115.88
2023-01-08T00:51:01.598Z,100107.94
2023-01-08T00:53:34.247Z,100103.53
2023-01-08T00:56:11.022Z,100114.97
2023-01-08T00:58:42.936Z,100105.31
2023-01-08T01:01:16.283Z,100099.16
2023-01-08T01:03:48.313Z,100099.16
2023-01-08T01:06:20.280Z,100099.16
2023-01-08T01:08:52.524Z,100088.56
2023-01-08T01:11:27.669Z,100092.97
2023-01-08T01:13:59.793Z,100085.97
2023-01-08T01:16:31.843Z,100088.59
2023-01-08T01:19:03.785Z,100089.53
2023-01-08T01:21:36.171Z,100090.38
2023-01-08T01:24:11.869Z,100092.16
2023-01-08T01:26:43.864Z,100084.22
2023-01-08T01:29:15.822Z,100084.28
2023-01-08T01:31:47.742Z,100079.91
2023-01-08T01:34:19.754Z,100077.28
2023-01-08T01:36:51.689Z,100082.53
2023-01-08T01:39:23.695Z,100084.28
2023-01-08T01:41:55.605Z,100097.44
2023-01-08T01:44:45.408Z,100093.84
2023-01-08T01:47:27.004Z,100112.25
2023-01-08T01:50:22.955Z,100105.94
2023-01-08T01:53:06.756Z,100122.41
2023-01-08T01:55:42.746Z,100124.69
2023-01-08T01:58:21.475Z,100137.59
2023-01-08T02:00:57.121Z,100129.50
2023-01-08T02:03:37.694Z,100131.91
2023-01-08T02:06:43.576Z,100136.13
2023-01-08T02:09:42.059Z,100126.31
2023-01-08T02:12:24.450Z,100116.66
2023-01-08T02:15:31.523Z,100108.44
2023-01-08T02:18:09.987Z,100122.47
2023-01-08T02:20:57.592Z,100089.72
2023-01-08T02:24:12.572Z,100094.97
2023-01-08T02:26:48.288Z,100087.16
2023-01-08T02:29:25.242Z,100089.00
2023-01-08T02:31:57.447Z,100088.00
2023-01-08T02:34:32.060Z,100091.38
2023-01-08T02:37:04.490Z,100087.78
2023-01-08T02:40:11.481Z,100077.97
2023-01-08T02:43:00.200Z,100078.00
2023-01-08T02:45:47.515Z,100077.16
2023-01-08T02:48:49.396Z,100074.34
2023-01-08T02:51:43.235Z,100065.56
2023-01-08T02:54:27.454Z,100068.19
2023-01-08T02:57:15.801Z,100059.25
2023-01-08T02:59:50.652Z,100061.16
2023-01-08T03:02:24.211Z,100064.69
2023-01-08T03:05:05.306Z,100055.06
2023-01-08T03:07:37.479Z,100050.69
2023-01-08T03:10:10.586Z,100046.31
2023-01-08T03:13:03.963Z,100053.28
2023-01-08T03:15:45.428Z,100050.59
2023-01-08T03:18:27.961Z,100052.38
2023-01-08T03:21:03.767Z,100051.50
2023-01-08T03:23:40.156Z,100047.06
2023-01-08T03:26:17.718Z,100049.75
2023-01-08T03:28:55.143Z,100044.53
2023-01-08T03:31:30.171Z,100038.44
2023-01-08T03:34:05.305Z,100043.69
2023-01-08T03:36:41.342Z,100040.16
2023-01-08T03:39:26.539Z,100029.53
2023-01-08T03:42:04.945Z,100034.03
2023-01-08T03:44:37.087Z,100037.53
2023-01-08T03:47:11.451Z,100027.81
2023-01-08T03:49:45.357Z,100037.59
2023-01-08T03:52:32.889Z,100036.72
2023-01-08T03:55:05.356Z,100032.38
2023-01-08T03:57:37.333Z,100018.28
2023-01-08T04:00:10.777Z,100022.84
2023-01-08T04:02:43.120Z,100003.38
2023-01-08T04:05:15.196Z,100025.53
2023-01-08T04:07:47.118Z,100018.53
2023-01-08T04:10:19.056Z,100022.06
2023-01-08T04:12:51.085Z,100016.88
2023-01-08T04:15:23.020Z,100009.78
2023-01-08T04:17:55.032Z,100001.03
2023-01-08T04:20:27.084Z,100000.13
2023-01-08T04:22:58.990Z,99990.47
2023-01-08T04:25:30.884Z,100008.81
2023-01-08T04:28:02.765Z,100006.97
2023-01-08T04:30:34.742Z,100010.53
2023-01-08T04:33:06.668Z,99998.22
2023-01-08T04:35:38.641Z,99994.81
2023-01-08T04:38:11.697Z,99985.19
2023-01-08T04:40:44.116Z,99996.53
2023-01-08T04:43:16.053Z,100002.63
2023-01-08T04:45:47.947Z,99986.63
2023-01-08T04:48:19.882Z,99990.22
2023-01-08T04:50:51.840Z,99990.19
2023-01-08T04:53:23.838Z,99995.31
2023-01-08T04:55:56.136Z,99962.50
2023-01-08T04:58:28.083Z,100005.94
2023-01-08T05:01:00.112Z,99989.31
2023-01-08T05:03:32.133Z,100008.56
2023-01-08T05:06:04.586Z,100005.94
2023-01-08T05:08:36.558Z,100001.53
2023-01-08T05:11:08.504Z,100008.56
2023-01-08T05:13:40.518Z,100000.75
2023-01-08T05:16:12.441Z,99991.94
2023-01-08T05:18:45.889Z,100003.41
2023-01-08T05:21:18.465Z,99996.47
2023-01-08T05:23:50.401Z,99998.19
2023-01-08T05:26:22.393Z,100001.72
2023-01-08T05:28:54.337Z,99988.53
2023-01-08T05:31:26.684Z,99972.63
2023-01-08T05:33:59.588Z,99977.16
2023-01-08T05:36:31.765Z,99965.66
2023-01-08T05:39:04.406Z,99967.44
2023-01-08T05:41:36.285Z,99931.09
2023-01-08T05:44:10.111Z,99920.53
2023-01-08T05:46:42.038Z,99966.66
2023-01-08T05:49:16.139Z,99967.50
2023-01-08T05:51:48.999Z,99969.22
2023-01-08T05:54:20.920Z,99968.38
2023-01-08T05:56:52.866Z,99962.31
2023-01-08T05:59:24.755Z,99975.31
2023-01-08T06:01:56.729Z,99977.03
2023-01-08T06:04:28.740Z,99984.06
2023-01-08T06:07:00.919Z,99978.81
2023-01-08T06:09:32.828Z,99987.56
2023-01-08T06:12:05.266Z,99995.44
2023-01-08T06:14:37.135Z,100008.47
2023-01-08T06:17:09.553Z,100010.97
2023-01-08T06:19:41.557Z,100006.50
2023-01-08T06:22:14.959Z,100002.09
2023-01-08T06:24:46.930Z,99964.66
2023-01-08T06:27:18.837Z,100000.88
2023-01-08T06:29:50.789Z,100005.13
2023-01-08T06:32:22.665Z,100007.69
2023-01-08T06:34:54.556Z,100012.88
2023-01-08T06:37:26.459Z,100008.38
2023-01-08T06:39:58.426Z,100007.28
2023-01-08T06:42:30.373Z,100016.16
2023-01-08T06:45:02.317Z,100017.81
2023-01-08T06:47:34.235Z,100014.22
2023-01-08T06:50:06.956Z,100025.59
2023-01-08T06:52:39.248Z,100024.63
2023-01-08T06:55:11.199Z,100022.03
2023-01-08T06:57:43.105Z,100007.94
2023-01-08T07:00:15.579Z,100031.53
2023-01-08T07:02:47.604Z,100028.13
2023-01-08T07:05:20.226Z,100026.31
2023-01-08T07:07:52.172Z,100031.38
2023-01-08T07:10:24.237Z,100022.41
2023-01-08T07:12:56.166Z,100017.09
2023-01-08T07:15:28.114Z,100021.56
2023-01-08T07:18:00.023Z,100024.13
2023-01-08T07:20:33.885Z,100012.72
2023-01-08T07:23:11.790Z,100012.59
2023-01-08T07:25:43.772Z,100012.44
2023-01-08T07:28:15.816Z,100007.91
2023-01-08T07:30:47.746Z,100021.84
2023-01-08T07:33:19.694Z,100021.78
2023-01-08T07:35:56.566Z,100021.66
2023-01-08T07:38:28.596Z,100018.13
2023-01-08T07:41:00.614Z,100006.69
2023-01-08T07:43:32.510Z,100022.38
2023-01-08T07:46:05.301Z,100022.44
2023-01-08T07:48:37.226Z,100010.94
2023-01-08T07:51:10.170Z,100012.72
2023-01-08T07:53:42.320Z,100011.75
2023-01-08T07:56:14.228Z,99970.84
2023-01-08T07:58:46.147Z,100014.03
2023-01-08T08:01:18.383Z,100010.59
2023-01-08T08:03:50.385Z,100007.97
2023-01-08T08:06:22.372Z,100003.56
2023-01-08T08:08:54.370Z,99994.13
2023-01-08T08:11:26.283Z,99989.78
2023-01-08T08:13:58.244Z,99981.16
2023-01-08T08:16:30.224Z,99981.22
2023-01-08T08:19:02.308Z,99972.50
2023-01-08T08:21:34.267Z,99961.81
2023-01-08T08:24:06.738Z,99967.09
2023-01-08T08:26:38.748Z,99961.94
2023-01-08T08:29:11.137Z,99967.34
2023-01-08T08:31:43.162Z,99971.97
2023-01-08T08:34:15.149Z,99972.03
2023-01-08T08:36:47.074Z,99978.16
2023-01-08T08:39:19.053Z,99979.81
2023-01-08T08:41:51.082Z,99969.19
2023-01-08T08:44:23.052Z,99979.88
2023-01-08T08:46:55.068Z,99980.66
2023-01-08T08:49:27.003Z,99970.09
2023-01-08T08:51:59.023Z,99974.50
2023-01-08T08:54:30.988Z,99960.44
2023-01-08T08:57:02.941Z,99956.31
2023-01-08T08:59:35.194Z,99929.84
2023-01-08T09:02:08.040Z,99952.16
2023-01-08T09:04:40.145Z,99968.69
2023-01-08T09:07:12.057Z,99965.97
2023-01-08T09:09:43.971Z,99956.31
2023-01-08T09:12:15.925Z,99953.69
2023-01-08T09:14:50.206Z,99957.22
2023-01-08T09:17:22.233Z,99956.19
2023-01-08T09:19:54.221Z,99943.91
2023-01-08T09:22:26.219Z,99946.59
2023-01-08T09:24:58.200Z,99928.88
2023-01-08T09:27:30.126Z,99943.03
2023-01-08T09:30:02.099Z,99928.88
2023-01-08T09:32:34.055Z,99907.63
2023-01-08T09:35:06.752Z,99929.91
2023-01-08T09:37:38.662Z,99932.56
2023-01-08T09:40:16.717Z,99911.53
2023-01-08T09:42:59.028Z,99906.16
2023-01-08T09:45:37.904Z,99918.78
2023-01-08T09:48:18.434Z,99917.03
2023-01-08T09:50:50.549Z,99928.63
2023-01-08T09:53:23.092Z,99928.63
2023-01-08T09:56:10.492Z,99931.19
2023-01-08T09:58:54.782Z,99927.75
2023-01-08T10:01:36.088Z,99915.47
2023-01-08T10:04:30.152Z,99920.94
2023-01-08T10:07:22.926Z,99915.63
2023-01-08T10:09:56.460Z,99919.28
2023-01-08T10:12:32.608Z,99915.97
2023-01-08T10:15:12.171Z,99907.25
2023-01-08T10:18:00.895Z,99903.78
2023-01-08T10:20:34.062Z,99909.09
2023-01-08T10:23:17.493Z,99904.84
2023-01-08T10:26:03.389Z,99896.22
2023-01-08T10:28:35.886Z,99899.88
2023-01-08T10:31:17.210Z,99899.97
2023-01-08T10:33:50.119Z,99891.28
2023-01-08T10:36:24.598Z,99896.63
2023-01-08T10:39:01.109Z,99893.25
2023-01-08T10:41:39.943Z,99885.47
2023-01-08T10:44:24.227Z,99880.38
2023-01-08T10:47:01.039Z,99875.75
2023-01-08T10:49:43.702Z,99869.47
2023-01-08T10:52:32.898Z,99863.50
2023-01-08T10:55:21.344Z,99856.91
2023-01-08T10:58:01.653Z,99844.41
2023-01-08T11:00:36.708Z,99843.22
2023-01-08T11:03:32.958Z,99826.25
2023-01-08T11:06:23.920Z,99835.59
2023-01-08T11:09:00.937Z,99835.91
2023-01-08T11:11:35.999Z,99816.94
2023-01-08T11:14:35.971Z,99823.34
2023-01-08T11:17:12.938Z,99815.78
2023-01-08T11:19:44.950Z,99817.75
2023-01-08T11:22:25.241Z,99813.34
2023-01-08T11:24:58.087Z,99800.28
2023-01-08T11:27:36.980Z,99796.81
2023-01-08T11:30:15.607Z,99795.13
2023-01-08T11:32:52.978Z,99782.78
2023-01-08T11:35:56.498Z,99787.88
2023-01-08T11:38:28.493Z,99784.28
2023-01-08T11:41:49.215Z,99780.75
2023-01-08T11:44:48.005Z,99768.38
2023-01-08T11:47:53.528Z,99777.72
2023-01-08T11:50:53.962Z,99775.88
2023-01-08T11:54:04.805Z,99769.81
2023-01-08T11:56:58.345Z,99767.41
2023-01-08T12:00:18.009Z,99770.03
2023-01-08T12:02:56.352Z,99750.41
2023-01-08T12:06:14.491Z,99772.03
2023-01-08T12:09:18.619Z,99769.38
2023-01-08T12:12:39.183Z,99756.03
2023-01-08T12:15:43.816Z,99752.59
2023-01-08T12:18:42.243Z,99758.69
2023-01-08T12:21:55.637Z,99752.34
2023-01-08T12:24:45.198Z,99763.59
2023-01-08T12:27:59.128Z,99759.81
2023-01-08T12:30:52.142Z,99755.09
2023-01-08T12:33:43.785Z,99752.31
2023-01-08T12:36:51.371Z,99757.56
2023-01-08T12:39:38.883Z,99741.91
2023-01-08T12:42:24.490Z,99748.91
2023-01-08T12:45:00.798Z,99745.38
2023-01-08T12:47:37.889Z,99743.63
2023-01-08T12:50:34.128Z,99738.28
2023-01-08T12:53:27.286Z,99748.88
2023-01-08T12:56:18.389Z,99741.91
2023-01-08T12:59:05.416Z,99732.34
2023-01-08T13:01:59.856Z,99730.13
2023-01-08T13:04:48.742Z,99716.22
2023-01-08T13:07:30.526Z,99723.09
2023-01-08T13:10:09.413Z,99726.44
2023-01-08T13:12:43.672Z,99725.50
2023-01-08T13:15:28.090Z,99713.13
2023-01-08T13:18:21.678Z,99713.97
2023-01-08T13:21:03.248Z,99706.16
2023-01-08T13:23:36.131Z,99701.06
2023-01-08T13:26:08.221Z,99699.56
2023-01-08T13:28:45.218Z,99696.28
2023-01-08T13:31:24.532Z,99690.22
2023-01-08T13:33:56.660Z,99695.31
2023-01-08T13:36:29.784Z,99698.84
2023-01-08T13:39:26.386Z,99693.44
2023-01-08T13:42:03.331Z,99686.25
2023-01-08T13:44:42.467Z,99694.16
2023-01-08T13:47:37.109Z,99675.06
2023-01-08T13:50:21.575Z,99673.44
2023-01-08T13:53:03.318Z,99661.97
2023-01-08T13:55:43.124Z,99674.25
2023-01-08T13:58:35.724Z,99660.19
2023-01-08T14:01:10.689Z,99653.91
2023-01-08T14:03:50.457Z,99656.47
2023-01-08T14:06:28.245Z,99658.13
2023-01-08T14:09:05.371Z,99655.28
2023-01-08T14:11:46.556Z,99643.91
2023-01-08T14:14:23.167Z,99633.25
2023-01-08T14:16:57.018Z,99638.53
2023-01-08T14:19:29.142Z,99630.59
2023-01-08T14:22:04.314Z,99633.16
2023-01-08T14:24:36.264Z,99633.13
2023-01-08T14:27:26.147Z,99626.88
2023-01-08T14:29:58.829Z,99624.25
2023-01-08T14:32:31.357Z,99619.84
2023-01-08T14:35:05.085Z,99603.13
2023-01-08T14:37:37.084Z,99604.00
2023-01-08T14:40:26.695Z,99608.38
2023-01-08T14:43:06.644Z,99604.88
2023-01-08T14:45:46.858Z,99590.81
2023-01-08T14:48:32.654Z,99593.47
2023-01-08T14:51:27.144Z,99578.50
2023-01-08T14:54:06.153Z,99584.69
2023-01-08T14:56:38.167Z,99599.63
2023-01-08T14:59:12.193Z,99587.28
2023-01-08T15:01:44.353Z,99578.53
2023-01-08T15:04:22.037Z,99583.75
2023-01-08T15:07:18.693Z,99579.31
2023-01-08T15:10:01.561Z,99573.16
2023-01-08T15:12:33.460Z,99560.84
2023-01-08T15:15:23.109Z,99564.28
2023-01-08T15:17:55.289Z,99551.13
2023-01-08T15:20:32.158Z,99559.97
2023-01-08T15:23:04.377Z,99547.63
2023-01-08T15:25:36.406Z,99558.09
2023-01-08T15:28:15.790Z,99558.97
2023-01-08T15:30:49.317Z,99554.59
2023-01-08T15:33:27.319Z,99516.69
2023-01-08T15:35:59.361Z,99565.97
2023-01-08T15:38:31.297Z,99554.50
2023-01-08T15:41:03.340Z,99559.72
2023-01-08T15:43:35.247Z,99541.22
2023-01-08T15:46:11.800Z,99553.63
2023-01-08T15:48:43.719Z,99548.34
2023-01-08T15:51:15.651Z,99540.38
2023-01-08T15:53:47.649Z,99543.88
2023-01-08T15:56:19.562Z,99544.72
2023-01-08T15:58:52.976Z,99540.28
2023-01-08T16:01:27.783Z,99540.25
2023-01-08T16:04:00.287Z,99536.66
2023-01-08T16:06:32.484Z,99537.50
2023-01-08T16:09:04.461Z,99533.97
2023-01-08T16:11:36.399Z,99537.44
2023-01-08T16:14:08.347Z,99538.34
2023-01-08T16:16:40.352Z,99544.38
2023-01-08T16:19:12.281Z,99545.19
2023-01-08T16:21:48.258Z,99542.56
2023-01-08T16:24:20.228Z,99551.31
2023-01-08T16:26:52.650Z,99550.38
2023-01-08T16:29:24.570Z,99538.91
2023-01-08T16:31:56.545Z,99556.53
2023-01-08T16:34:28.531Z,99542.50
2023-01-08T16:37:00.462Z,99543.47
2023-01-08T16:39:32.559Z,99543.53
2023-01-08T16:42:05.213Z,99535.69
2023-01-08T16:44:37.413Z,99514.53
2023-01-08T16:47:09.336Z,99522.56
2023-01-08T16:49:41.845Z,99519.06
2023-01-08T16:52:13.913Z,99510.28
2023-01-08T16:54:47.903Z,99514.72
2023-01-08T16:57:19.855Z,99503.38
2023-01-08T16:59:51.797Z,99493.63
2023-01-08T17:02:23.830Z,99507.63
2023-01-08T17:04:55.727Z,99503.28
2023-01-08T17:07:27.711Z,99500.56
2023-01-08T17:09:59.751Z,99499.72
2023-01-08T17:12:31.843Z,99495.28
2023-01-08T17:15:04.145Z,99483.94
2023-01-08T17:17:36.088Z,99477.72
2023-01-08T17:20:09.862Z,99477.72
2023-01-08T17:22:41.844Z,99472.44
2023-01-08T17:25:14.179Z,99466.31
2023-01-08T17:27:46.227Z,99467.09
2023-01-08T17:30:18.461Z,99454.75
2023-01-08T17:32:50.474Z,99452.13
2023-01-08T17:35:22.481Z,99459.19
2023-01-08T17:37:54.402Z,99460.88
2023-01-08T17:40:26.334Z,99426.50
2023-01-08T17:42:58.243Z,99441.53
2023-01-08T17:45:30.247Z,99452.97
2023-01-08T17:48:02.216Z,99417.75
2023-01-08T17:50:34.407Z,99441.56
2023-01-08T17:53:06.365Z,99434.50
2023-01-08T17:55:38.305Z,99429.25
2023-01-08T17:58:10.267Z,99432.75
2023-01-08T18:00:42.241Z,99425.69
2023-01-08T18:03:14.232Z,99433.56
2023-01-08T18:05:46.964Z,99423.09
2023-01-08T18:08:18.972Z,99424.81
2023-01-08T18:10:50.870Z,99425.69
2023-01-08T18:13:22.803Z,99410.78
2023-01-08T18:15:54.786Z,99402.00
2023-01-08T18:18:26.697Z,99418.66
2023-01-08T18:20:58.822Z,99409.00
2023-01-08T18:23:31.463Z,99409.91
2023-01-08T18:26:10.856Z,99411.59
2023-01-08T18:28:44.331Z,99409.84
2023-01-08T18:31:16.365Z,99408.97
2023-01-08T18:33:52.250Z,99404.66
2023-01-08T18:36:24.978Z,99390.56
2023-01-08T18:38:57.576Z,99396.66
2023-01-08T18:41:48.513Z,99384.41
2023-01-08T18:44:20.684Z,99392.28
2023-01-08T18:46:52.645Z,99382.59
2023-01-08T18:49:25.357Z,99384.34
2023-01-08T18:51:57.337Z,99362.34
2023-01-08T18:54:29.288Z,99382.56
2023-01-08T18:57:01.168Z,99365.09
2023-01-08T18:59:33.162Z,99365.94
2023-01-08T19:02:05.432Z,99362.44
2023-01-08T19:04:37.448Z,99361.50
2023-01-08T19:07:09.392Z,99370.34
2023-01-08T19:09:41.399Z,99364.16
2023-01-08T19:12:13.334Z,99356.31
2023-01-08T19:14:47.087Z,99363.31
2023-01-08T19:17:19.238Z,99353.72
2023-01-08T19:19:51.204Z,99347.66
2023-01-08T19:22:26.714Z,99327.47
2023-01-08T19:24:59.331Z,99342.38
2023-01-08T19:27:31.299Z,99301.84
2023-01-08T19:30:04.614Z,99333.47
2023-01-08T19:32:36.625Z,99342.28
2023-01-08T19:35:09.186Z,99341.34
2023-01-08T19:37:41.187Z,99326.44
2023-01-08T19:40:13.661Z,99303.50
2023-01-08T19:43:04.290Z,99317.59
2023-01-08T19:45:37.395Z,99321.97
2023-01-08T19:48:09.625Z,99299.13
2023-01-08T19:50:41.981Z,99320.22
2023-01-08T19:53:14.759Z,99308.00
2023-01-08T19:55:46.734Z,99308.00
2023-01-08T19:58:19.539Z,99295.72
2023-01-08T20:00:51.500Z,99293.06
2023-01-08T20:03:25.096Z,99285.19
2023-01-08T20:05:57.090Z,99277.38
2023-01-08T20:08:29.069Z,99277.38
2023-01-08T20:11:11.122Z,99270.34
2023-01-08T20:13:44.159Z,99255.50
2023-01-08T20:16:19.922Z,99252.00
2023-01-08T20:18:56.815Z,99255.50
2023-01-08T20:21:29.359Z,99233.53
2023-01-08T20:24:09.480Z,99241.53
2023-01-08T20:26:46.223Z,99232.78
2023-01-08T20:29:18.319Z,99224.00
2023-01-08T20:31:56.774Z,99244.97
2023-01-08T20:34:28.789Z,99243.16
2023-01-08T20:37:00.788Z,99240.50
2023-01-08T20:39:32.752Z,99231.72
2023-01-08T20:42:05.210Z,99233.56
2023-01-08T20:44:37.344Z,99234.47
2023-01-08T20:47:09.312Z,99226.44
2023-01-08T20:49:41.420Z,99232.66
2023-01-08T20:52:14.825Z,99222.13
2023-01-08T20:54:46.797Z,99201.94
2023-01-08T20:57:18.751Z,99219.47
2023-01-08T20:59:50.696Z,99208.13
2023-01-08T21:02:22.665Z,99190.56
2023-01-08T21:04:55.407Z,99203.78
2023-01-08T21:07:29.881Z,99196.75
2023-01-08T21:10:01.855Z,99202.91
2023-01-08T21:12:35.742Z,99200.28
2023-01-08T21:15:08.840Z,99202.06
2023-01-08T21:17:40.794Z,99204.72
2023-01-08T21:20:13.020Z,99195.09
2023-01-08T21:22:45.434Z,99192.47
2023-01-08T21:25:18.985Z,99190.75
2023-01-08T21:27:50.953Z,99181.19
2023-01-08T21:30:23.499Z,99175.97
2023-01-08T21:32:56.396Z,99180.34
2023-01-08T21:35:28.429Z,99176.88
2023-01-08T21:38:00.386Z,99172.50
2023-01-08T21:40:32.450Z,99176.06
2023-01-08T21:43:23.335Z,99152.34
2023-01-08T21:46:01.730Z,99116.41
2023-01-08T21:48:33.706Z,99157.72
2023-01-08T21:51:06.096Z,99157.78
2023-01-08T21:53:38.003Z,99149.97
2023-01-08T21:56:09.965Z,99153.47
2023-01-08T21:58:41.897Z,99151.75
2023-01-08T22:01:14.262Z,99148.28
2023-01-08T22:03:46.335Z,99146.50
2023-01-08T22:06:18.401Z,99143.88
2023-01-08T22:08:55.094Z,99146.50
2023-01-08T22:11:28.801Z,99138.59
2023-01-08T22:14:00.817Z,99132.44
2023-01-08T22:16:32.919Z,99144.72
2023-01-08T22:19:04.920Z,99130.72
2023-01-08T22:21:37.082Z,99128.06
2023-01-08T22:24:09.174Z,99127.19
2023-01-08T22:26:41.122Z,99120.16
2023-01-08T22:29:13.082Z,99131.56
2023-01-08T22:31:45.103Z,99128.94
2023-01-08T22:34:18.333Z,99134.22
2023-01-08T22:36:51.806Z,99116.56
2023-01-08T22:39:23.808Z,99144.69
2023-01-08T22:41:55.767Z,99139.41
2023-01-08T22:44:27.825Z,99142.94
2023-01-08T22:47:02.510Z,99146.34
2023-01-08T22:49:34.592Z,99195.31
2023-01-08T22:52:07.426Z,99199.53
2023-01-08T22:54:39.859Z,99209.81
2023-01-08T22:57:11.837Z,99202.66
2023-01-08T22:59:43.775Z,99207.78
2023-01-08T23:02:19.219Z,99209.41
2023-01-08T23:04:52.190Z,99194.44
2023-01-08T23:07:24.178Z,99198.88
2023-01-08T23:09:56.095Z,99196.19
2023-01-08T23:12:28.124Z,99190.94
2023-01-08T23:15:00.496Z,99185.66
2023-01-08T23:17:38.920Z,99191.84
2023-01-08T23:20:19.013Z,99185.75
2023-01-08T23:22:51.366Z,99177.03
2023-01-08T23:25:23.309Z,99178.81
2023-01-08T23:27:55.387Z,99156.00
2023-01-08T23:30:31.417Z,99174.38
2023-01-08T23:33:03.399Z,99184.03
2023-01-08T23:35:35.393Z,99181.41
2023-01-08T23:38:07.315Z,99197.22
2023-01-08T23:40:43.436Z,99206.78
2023-01-08T23:43:15.557Z,99203.97
2023-01-08T23:45:47.579Z,99218.88
2023-01-08T23:48:19.583Z,99220.59
2023-01-08T23:50:51.503Z,99220.59
2023-01-08T23:53:24.001Z,99219.69
2023-01-08T23:55:56.227Z,99217.84
2023-01-08T23:58:28.230Z,99217.78
